sensor_id;sensor_type;location;lat;lon;timestamp;temperature;humidity
9373;DHT22;10838;52.350;9.790;2023-11-19T00:01:58;7.20;97.40
9373;DHT22;10838;52.350;9.790;2023-11-19T00:04:25;7.20;97.40
9373;DHT22;10838;52.350;9.790;2023-11-19T00:06:51;7.20;97.40
9373;DHT22;10838;52.350;9.790;2023-11-19T00:09:18;7.20;97.50
9373;DHT22;10838;52.350;9.790;2023-11-19T00:11:45;7.20;97.40
9373;DHT22;10838;52.350;9.790;2023-11-19T00:14:12;7.20;97.40
9373;DHT22;10838;52.350;9.790;2023-11-19T00:16:39;7.20;97.40
9373;DHT22;10838;52.350;9.790;2023-11-19T00:19:07;7.30;97.40
9373;DHT22;10838;52.350;9.790;2023-11-19T00:21:34;7.30;97.40
9373;DHT22;10838;52.350;9.790;2023-11-19T00:24:02;7.30;97.40
9373;DHT22;10838;52.350;9.790;2023-11-19T00:26:29;7.30;97.40
9373;DHT22;10838;52.350;9.790;2023-11-19T00:28:56;7.30;97.40
9373;DHT22;10838;52.350;9.790;2023-11-19T00:31:23;7.30;97.40
9373;DHT22;10838;52.350;9.790;2023-11-19T00:33:49;7.30;97.40
9373;DHT22;10838;52.350;9.790;2023-11-19T00:36:17;7.40;97.50
9373;DHT22;10838;52.350;9.790;2023-11-19T00:38:44;7.40;97.50
9373;DHT22;10838;52.350;9.790;2023-11-19T00:41:10;7.30;97.50
9373;DHT22;10838;52.350;9.790;2023-11-19T00:43:37;7.40;97.50
9373;DHT22;10838;52.350;9.790;2023-11-19T00:46:07;7.40;97.50
9373;DHT22;10838;52.350;9.790;2023-11-19T00:48:36;7.40;97.50
9373;DHT22;10838;52.350;9.790;2023-11-19T00:51:03;7.50;97.50
9373;DHT22;10838;52.350;9.790;2023-11-19T00:53:31;7.50;97.50
9373;DHT22;10838;52.350;9.790;2023-11-19T00:55:59;7.50;97.50
9373;DHT22;10838;52.350;9.790;2023-11-19T00:58:26;7.50;97.50
9373;DHT22;10838;52.350;9.790;2023-11-19T01:00:52;7.50;97.50
9373;DHT22;10838;52.350;9.790;2023-11-19T01:03:19;7.50;97.50
9373;DHT22;10838;52.350;9.790;2023-11-19T01:05:46;7.50;97.60
9373;DHT22;10838;52.350;9.790;2023-11-19T01:08:13;7.60;97.60
9373;DHT22;10838;52.350;9.790;2023-11-19T01:10:42;7.60;97.70
9373;DHT22;10838;52.350;9.790;2023-11-19T01:13:09;7.60;97.60
9373;DHT22;10838;52.350;9.790;2023-11-19T01:15:36;7.60;97.60
9373;DHT22;10838;52.350;9.790;2023-11-19T01:18:02;7.60;97.60
9373;DHT22;10838;52.350;9.790;2023-11-19T01:20:30;7.70;97.60
9373;DHT22;10838;52.350;9.790;2023-11-19T01:22:57;7.70;97.60
9373;DHT22;10838;52.350;9.790;2023-11-19T01:25:23;7.70;97.60
9373;DHT22;10838;52.350;9.790;2023-11-19T01:27:52;7.70;97.60
9373;DHT22;10838;52.350;9.790;2023-11-19T01:30:18;7.80;97.70
9373;DHT22;10838;52.350;9.790;2023-11-19T01:32:45;7.80;97.70
9373;DHT22;10838;52.350;9.790;2023-11-19T01:35:12;7.80;97.70
9373;DHT22;10838;52.350;9.790;2023-11-19T01:37:38;7.80;97.70
9373;DHT22;10838;52.350;9.790;2023-11-19T01:40:06;7.90;97.70
9373;DHT22;10838;52.350;9.790;2023-11-19T01:42:36;7.90;97.70
9373;DHT22;10838;52.350;9.790;2023-11-19T01:45:06;7.90;97.70
9373;DHT22;10838;52.350;9.790;2023-11-19T01:47:33;8.00;97.70
9373;DHT22;10838;52.350;9.790;2023-11-19T01:50:02;8.00;97.70
9373;DHT22;10838;52.350;9.790;2023-11-19T01:52:33;8.00;97.80
9373;DHT22;10838;52.350;9.790;2023-11-19T01:55:01;8.00;97.80
9373;DHT22;10838;52.350;9.790;2023-11-19T01:57:28;8.00;97.80
9373;DHT22;10838;52.350;9.790;2023-11-19T01:59:55;8.10;97.80
9373;DHT22;10838;52.350;9.790;2023-11-19T02:02:23;8.10;97.80
9373;DHT22;10838;52.350;9.790;2023-11-19T02:04:52;8.10;97.80
9373;DHT22;10838;52.350;9.790;2023-11-19T02:07:20;8.10;97.80
9373;DHT22;10838;52.350;9.790;2023-11-19T02:09:46;8.10;97.80
9373;DHT22;10838;52.350;9.790;2023-11-19T02:12:13;8.20;97.80
9373;DHT22;10838;52.350;9.790;2023-11-19T02:14:40;8.20;97.80
9373;DHT22;10838;52.350;9.790;2023-11-19T02:17:07;8.20;97.80
9373;DHT22;10838;52.350;9.790;2023-11-19T02:19:35;8.20;97.80
9373;DHT22;10838;52.350;9.790;2023-11-19T02:22:02;8.20;97.80
9373;DHT22;10838;52.350;9.790;2023-11-19T02:24:31;8.30;97.90
9373;DHT22;10838;52.350;9.790;2023-11-19T02:27:04;8.30;97.90
9373;DHT22;10838;52.350;9.790;2023-11-19T02:29:36;8.30;97.90
9373;DHT22;10838;52.350;9.790;2023-11-19T02:32:04;8.30;97.90
9373;DHT22;10838;52.350;9.790;2023-11-19T02:34:30;8.30;97.90
9373;DHT22;10838;52.350;9.790;2023-11-19T02:36:57;8.40;97.90
9373;DHT22;10838;52.350;9.790;2023-11-19T02:39:24;8.40;97.90
9373;DHT22;10838;52.350;9.790;2023-11-19T02:41:52;8.40;97.90
9373;DHT22;10838;52.350;9.790;2023-11-19T02:44:18;8.40;97.90
9373;DHT22;10838;52.350;9.790;2023-11-19T02:46:46;8.50;98.00
9373;DHT22;10838;52.350;9.790;2023-11-19T02:49:14;8.50;98.00
9373;DHT22;10838;52.350;9.790;2023-11-19T02:51:40;8.50;98.00
9373;DHT22;10838;52.350;9.790;2023-11-19T02:54:07;8.60;98.00
9373;DHT22;10838;52.350;9.790;2023-11-19T02:56:33;8.60;98.00
9373;DHT22;10838;52.350;9.790;2023-11-19T02:59:02;8.60;98.00
9373;DHT22;10838;52.350;9.790;2023-11-19T03:01:34;8.60;98.00
9373;DHT22;10838;52.350;9.790;2023-11-19T03:04:03;8.60;98.00
9373;DHT22;10838;52.350;9.790;2023-11-19T03:06:30;8.70;98.00
9373;DHT22;10838;52.350;9.790;2023-11-19T03:08:57;8.70;98.00
9373;DHT22;10838;52.350;9.790;2023-11-19T03:11:24;8.70;98.00
9373;DHT22;10838;52.350;9.790;2023-11-19T03:13:51;8.70;98.00
9373;DHT22;10838;52.350;9.790;2023-11-19T03:16:17;8.80;98.10
9373;DHT22;10838;52.350;9.790;2023-11-19T03:18:44;8.80;98.10
9373;DHT22;10838;52.350;9.790;2023-11-19T03:21:12;8.80;98.10
9373;DHT22;10838;52.350;9.790;2023-11-19T03:23:39;8.90;98.10
9373;DHT22;10838;52.350;9.790;2023-11-19T03:26:06;8.90;98.10
9373;DHT22;10838;52.350;9.790;2023-11-19T03:28:33;8.90;98.10
9373;DHT22;10838;52.350;9.790;2023-11-19T03:31:00;8.90;98.10
9373;DHT22;10838;52.350;9.790;2023-11-19T03:33:26;9.00;98.10
9373;DHT22;10838;52.350;9.790;2023-11-19T03:35:53;9.00;98.10
9373;DHT22;10838;52.350;9.790;2023-11-19T03:38:23;9.00;98.10
9373;DHT22;10838;52.350;9.790;2023-11-19T03:40:49;9.00;98.10
9373;DHT22;10838;52.350;9.790;2023-11-19T03:43:16;9.10;98.20
9373;DHT22;10838;52.350;9.790;2023-11-19T03:45:44;9.10;98.20
9373;DHT22;10838;52.350;9.790;2023-11-19T03:48:11;9.10;98.20
9373;DHT22;10838;52.350;9.790;2023-11-19T03:50:38;9.10;98.20
9373;DHT22;10838;52.350;9.790;2023-11-19T03:53:05;9.20;98.20
9373;DHT22;10838;52.350;9.790;2023-11-19T03:55:33;9.20;98.20
9373;DHT22;10838;52.350;9.790;2023-11-19T03:57:59;9.20;98.20
9373;DHT22;10838;52.350;9.790;2023-11-19T04:00:26;9.20;98.20
9373;DHT22;10838;52.350;9.790;2023-11-19T04:02:53;9.30;98.20
9373;DHT22;10838;52.350;9.790;2023-11-19T04:05:20;9.30;98.20
9373;DHT22;10838;52.350;9.790;2023-11-19T04:07:46;9.30;98.20
9373;DHT22;10838;52.350;9.790;2023-11-19T04:10:13;9.30;98.20
9373;DHT22;10838;52.350;9.790;2023-11-19T04:12:41;9.30;98.20
9373;DHT22;10838;52.350;9.790;2023-11-19T04:15:08;9.30;98.20
9373;DHT22;10838;52.350;9.790;2023-11-19T04:17:35;9.40;98.20
9373;DHT22;10838;52.350;9.790;2023-11-19T04:20:02;9.40;98.20
9373;DHT22;10838;52.350;9.790;2023-11-19T04:22:29;9.40;98.30
9373;DHT22;10838;52.350;9.790;2023-11-19T04:24:56;9.40;98.20
9373;DHT22;10838;52.350;9.790;2023-11-19T04:27:23;9.40;98.20
9373;DHT22;10838;52.350;9.790;2023-11-19T04:29:52;9.40;98.30
9373;DHT22;10838;52.350;9.790;2023-11-19T04:32:18;9.40;98.20
9373;DHT22;10838;52.350;9.790;2023-11-19T04:34:46;9.50;98.30
9373;DHT22;10838;52.350;9.790;2023-11-19T04:37:14;9.50;98.30
9373;DHT22;10838;52.350;9.790;2023-11-19T04:39:40;9.50;98.30
9373;DHT22;10838;52.350;9.790;2023-11-19T04:42:07;9.50;98.30
9373;DHT22;10838;52.350;9.790;2023-11-19T04:44:34;9.50;98.30
9373;DHT22;10838;52.350;9.790;2023-11-19T04:47:02;9.50;98.30
9373;DHT22;10838;52.350;9.790;2023-11-19T04:49:28;9.60;98.30
9373;DHT22;10838;52.350;9.790;2023-11-19T04:51:56;9.60;98.30
9373;DHT22;10838;52.350;9.790;2023-11-19T04:54:23;9.60;98.30
9373;DHT22;10838;52.350;9.790;2023-11-19T04:56:49;9.60;98.30
9373;DHT22;10838;52.350;9.790;2023-11-19T04:59:16;9.60;98.30
9373;DHT22;10838;52.350;9.790;2023-11-19T05:01:46;9.60;98.30
9373;DHT22;10838;52.350;9.790;2023-11-19T05:04:14;9.70;98.30
9373;DHT22;10838;52.350;9.790;2023-11-19T05:06:41;9.70;98.30
9373;DHT22;10838;52.350;9.790;2023-11-19T05:09:07;9.70;98.30
9373;DHT22;10838;52.350;9.790;2023-11-19T05:11:34;9.80;98.30
9373;DHT22;10838;52.350;9.790;2023-11-19T05:14:02;9.80;98.30
9373;DHT22;10838;52.350;9.790;2023-11-19T05:16:30;9.80;98.30
9373;DHT22;10838;52.350;9.790;2023-11-19T05:18:57;9.90;98.40
9373;DHT22;10838;52.350;9.790;2023-11-19T05:21:25;9.90;98.40
9373;DHT22;10838;52.350;9.790;2023-11-19T05:23:51;9.90;98.40
9373;DHT22;10838;52.350;9.790;2023-11-19T05:26:18;10.00;98.30
9373;DHT22;10838;52.350;9.790;2023-11-19T05:28:45;10.00;98.30
9373;DHT22;10838;52.350;9.790;2023-11-19T05:31:11;10.00;98.30
9373;DHT22;10838;52.350;9.790;2023-11-19T05:33:38;10.00;98.30
9373;DHT22;10838;52.350;9.790;2023-11-19T05:36:05;10.00;98.30
9373;DHT22;10838;52.350;9.790;2023-11-19T05:38:34;10.00;98.30
9373;DHT22;10838;52.350;9.790;2023-11-19T05:41:01;10.10;98.30
9373;DHT22;10838;52.350;9.790;2023-11-19T05:43:28;10.10;98.30
9373;DHT22;10838;52.350;9.790;2023-11-19T05:45:54;10.10;98.30
9373;DHT22;10838;52.350;9.790;2023-11-19T05:48:21;10.10;98.30
9373;DHT22;10838;52.350;9.790;2023-11-19T05:50:48;10.10;98.30
9373;DHT22;10838;52.350;9.790;2023-11-19T05:53:15;10.10;98.30
9373;DHT22;10838;52.350;9.790;2023-11-19T05:55:43;10.20;98.30
9373;DHT22;10838;52.350;9.790;2023-11-19T05:58:14;10.20;98.30
9373;DHT22;10838;52.350;9.790;2023-11-19T06:00:41;10.20;98.30
9373;DHT22;10838;52.350;9.790;2023-11-19T06:03:08;10.30;98.30
9373;DHT22;10838;52.350;9.790;2023-11-19T06:05:34;10.30;98.30
9373;DHT22;10838;52.350;9.790;2023-11-19T06:08:01;10.30;98.30
9373;DHT22;10838;52.350;9.790;2023-11-19T06:10:28;10.30;98.30
9373;DHT22;10838;52.350;9.790;2023-11-19T06:12:58;10.30;98.30
9373;DHT22;10838;52.350;9.790;2023-11-19T06:15:25;10.40;98.40
9373;DHT22;10838;52.350;9.790;2023-11-19T06:17:51;10.40;98.40
9373;DHT22;10838;52.350;9.790;2023-11-19T06:20:18;10.40;98.40
9373;DHT22;10838;52.350;9.790;2023-11-19T06:22:45;10.50;98.40
9373;DHT22;10838;52.350;9.790;2023-11-19T06:25:12;10.50;98.40
9373;DHT22;10838;52.350;9.790;2023-11-19T06:27:40;10.50;98.40
9373;DHT22;10838;52.350;9.790;2023-11-19T06:30:09;10.60;98.40
9373;DHT22;10838;52.350;9.790;2023-11-19T06:32:36;10.60;98.40
9373;DHT22;10838;52.350;9.790;2023-11-19T06:35:02;10.70;98.40
9373;DHT22;10838;52.350;9.790;2023-11-19T06:37:30;10.70;98.50
9373;DHT22;10838;52.350;9.790;2023-11-19T06:39:56;10.80;98.50
9373;DHT22;10838;52.350;9.790;2023-11-19T06:42:23;10.80;98.50
9373;DHT22;10838;52.350;9.790;2023-11-19T06:44:49;10.90;98.50
9373;DHT22;10838;52.350;9.790;2023-11-19T06:47:18;10.90;98.50
9373;DHT22;10838;52.350;9.790;2023-11-19T06:49:44;11.00;98.50
9373;DHT22;10838;52.350;9.790;2023-11-19T06:52:11;11.00;98.50
9373;DHT22;10838;52.350;9.790;2023-11-19T06:54:38;11.10;98.50
9373;DHT22;10838;52.350;9.790;2023-11-19T06:57:05;11.10;98.50
9373;DHT22;10838;52.350;9.790;2023-11-19T06:59:32;11.10;98.50
9373;DHT22;10838;52.350;9.790;2023-11-19T07:01:58;11.20;98.50
9373;DHT22;10838;52.350;9.790;2023-11-19T07:04:26;11.20;98.50
9373;DHT22;10838;52.350;9.790;2023-11-19T07:06:53;11.20;98.50
9373;DHT22;10838;52.350;9.790;2023-11-19T07:09:19;11.30;98.50
9373;DHT22;10838;52.350;9.790;2023-11-19T07:11:46;11.30;98.50
9373;DHT22;10838;52.350;9.790;2023-11-19T07:14:13;11.30;98.50
9373;DHT22;10838;52.350;9.790;2023-11-19T07:16:39;11.30;98.50
9373;DHT22;10838;52.350;9.790;2023-11-19T07:19:06;11.30;98.50
9373;DHT22;10838;52.350;9.790;2023-11-19T07:21:34;11.40;98.50
9373;DHT22;10838;52.350;9.790;2023-11-19T07:24:05;11.40;98.50
9373;DHT22;10838;52.350;9.790;2023-11-19T07:26:32;11.40;98.50
9373;DHT22;10838;52.350;9.790;2023-11-19T07:28:59;11.40;98.50
9373;DHT22;10838;52.350;9.790;2023-11-19T07:31:27;11.40;98.50
9373;DHT22;10838;52.350;9.790;2023-11-19T07:33:53;11.40;98.50
9373;DHT22;10838;52.350;9.790;2023-11-19T07:36:20;11.40;98.50
9373;DHT22;10838;52.350;9.790;2023-11-19T07:38:48;11.40;98.50
9373;DHT22;10838;52.350;9.790;2023-11-19T07:41:16;11.50;98.50
9373;DHT22;10838;52.350;9.790;2023-11-19T07:43:43;11.50;98.40
9373;DHT22;10838;52.350;9.790;2023-11-19T07:46:11;11.50;98.40
9373;DHT22;10838;52.350;9.790;2023-11-19T07:48:38;11.50;98.40
9373;DHT22;10838;52.350;9.790;2023-11-19T07:51:05;11.60;98.40
9373;DHT22;10838;52.350;9.790;2023-11-19T07:53:32;11.60;98.40
9373;DHT22;10838;52.350;9.790;2023-11-19T07:56:00;11.60;98.30
9373;DHT22;10838;52.350;9.790;2023-11-19T07:58:27;11.60;98.30
9373;DHT22;10838;52.350;9.790;2023-11-19T08:00:54;11.60;98.30
9373;DHT22;10838;52.350;9.790;2023-11-19T08:03:20;11.70;98.30
9373;DHT22;10838;52.350;9.790;2023-11-19T08:05:48;11.70;98.20
9373;DHT22;10838;52.350;9.790;2023-11-19T08:08:15;11.70;98.20
9373;DHT22;10838;52.350;9.790;2023-11-19T08:10:42;11.70;98.20
9373;DHT22;10838;52.350;9.790;2023-11-19T08:13:11;11.70;98.10
9373;DHT22;10838;52.350;9.790;2023-11-19T08:15:37;11.70;98.10
9373;DHT22;10838;52.350;9.790;2023-11-19T08:18:04;11.80;98.10
9373;DHT22;10838;52.350;9.790;2023-11-19T08:20:32;11.80;98.10
9373;DHT22;10838;52.350;9.790;2023-11-19T08:22:59;11.80;98.10
9373;DHT22;10838;52.350;9.790;2023-11-19T08:25:26;11.80;98.00
9373;DHT22;10838;52.350;9.790;2023-11-19T08:27:53;11.80;98.00
9373;DHT22;10838;52.350;9.790;2023-11-19T08:30:21;11.80;97.90
9373;DHT22;10838;52.350;9.790;2023-11-19T08:32:47;11.80;97.90
9373;DHT22;10838;52.350;9.790;2023-11-19T08:35:14;11.80;97.80
9373;DHT22;10838;52.350;9.790;2023-11-19T08:37:41;11.90;97.80
9373;DHT22;10838;52.350;9.790;2023-11-19T08:40:09;11.90;97.80
9373;DHT22;10838;52.350;9.790;2023-11-19T08:42:36;11.90;97.80
9373;DHT22;10838;52.350;9.790;2023-11-19T08:45:05;11.90;97.70
9373;DHT22;10838;52.350;9.790;2023-11-19T08:47:33;11.90;97.70
9373;DHT22;10838;52.350;9.790;2023-11-19T08:50:00;11.90;97.70
9373;DHT22;10838;52.350;9.790;2023-11-19T08:52:26;11.90;97.70
9373;DHT22;10838;52.350;9.790;2023-11-19T08:54:53;11.90;97.60
9373;DHT22;10838;52.350;9.790;2023-11-19T08:57:20;12.00;97.60
9373;DHT22;10838;52.350;9.790;2023-11-19T08:59:46;12.00;97.60
9373;DHT22;10838;52.350;9.790;2023-11-19T09:02:13;12.00;97.60
9373;DHT22;10838;52.350;9.790;2023-11-19T09:04:41;12.00;97.60
9373;DHT22;10838;52.350;9.790;2023-11-19T09:07:08;12.00;97.60
9373;DHT22;10838;52.350;9.790;2023-11-19T09:09:35;12.00;97.60
9373;DHT22;10838;52.350;9.790;2023-11-19T09:12:02;12.00;97.60
9373;DHT22;10838;52.350;9.790;2023-11-19T09:14:29;12.10;97.60
9373;DHT22;10838;52.350;9.790;2023-11-19T09:16:55;12.10;97.60
9373;DHT22;10838;52.350;9.790;2023-11-19T09:19:22;12.20;97.60
9373;DHT22;10838;52.350;9.790;2023-11-19T09:21:50;12.20;97.60
9373;DHT22;10838;52.350;9.790;2023-11-19T09:24:17;12.20;97.50
9373;DHT22;10838;52.350;9.790;2023-11-19T09:26:43;12.20;97.50
9373;DHT22;10838;52.350;9.790;2023-11-19T09:29:10;12.20;97.50
9373;DHT22;10838;52.350;9.790;2023-11-19T09:31:38;12.30;97.40
9373;DHT22;10838;52.350;9.790;2023-11-19T09:34:05;12.30;97.40
9373;DHT22;10838;52.350;9.790;2023-11-19T09:36:31;12.30;97.40
9373;DHT22;10838;52.350;9.790;2023-11-19T09:38:59;12.30;97.40
9373;DHT22;10838;52.350;9.790;2023-11-19T09:41:27;12.30;97.40
9373;DHT22;10838;52.350;9.790;2023-11-19T09:43:56;12.30;97.40
9373;DHT22;10838;52.350;9.790;2023-11-19T09:46:22;12.40;97.40
9373;DHT22;10838;52.350;9.790;2023-11-19T09:48:53;12.40;97.40
9373;DHT22;10838;52.350;9.790;2023-11-19T09:51:20;12.40;97.40
9373;DHT22;10838;52.350;9.790;2023-11-19T09:54:05;12.40;97.40
9373;DHT22;10838;52.350;9.790;2023-11-19T09:56:33;12.40;97.30
9373;DHT22;10838;52.350;9.790;2023-11-19T09:59:02;12.50;97.30
9373;DHT22;10838;52.350;9.790;2023-11-19T10:01:28;12.60;97.30
9373;DHT22;10838;52.350;9.790;2023-11-19T10:03:57;12.60;97.30
9373;DHT22;10838;52.350;9.790;2023-11-19T10:06:25;12.60;97.30
9373;DHT22;10838;52.350;9.790;2023-11-19T10:08:52;12.70;97.30
9373;DHT22;10838;52.350;9.790;2023-11-19T10:11:20;12.70;97.20
9373;DHT22;10838;52.350;9.790;2023-11-19T10:13:47;12.70;97.20
9373;DHT22;10838;52.350;9.790;2023-11-19T10:16:15;12.70;97.20
9373;DHT22;10838;52.350;9.790;2023-11-19T10:18:44;12.70;97.10
9373;DHT22;10838;52.350;9.790;2023-11-19T10:21:12;12.70;97.10
9373;DHT22;10838;52.350;9.790;2023-11-19T10:23:49;12.70;97.00
9373;DHT22;10838;52.350;9.790;2023-11-19T10:26:17;12.70;97.00
9373;DHT22;10838;52.350;9.790;2023-11-19T10:28:46;12.70;96.90
9373;DHT22;10838;52.350;9.790;2023-11-19T10:31:12;12.70;96.90
9373;DHT22;10838;52.350;9.790;2023-11-19T10:33:39;12.70;96.90
9373;DHT22;10838;52.350;9.790;2023-11-19T10:36:06;12.80;97.00
9373;DHT22;10838;52.350;9.790;2023-11-19T10:38:33;12.80;97.00
9373;DHT22;10838;52.350;9.790;2023-11-19T10:41:00;12.80;96.90
9373;DHT22;10838;52.350;9.790;2023-11-19T10:43:27;12.80;97.00
9373;DHT22;10838;52.350;9.790;2023-11-19T10:46:08;12.90;97.00
9373;DHT22;10838;52.350;9.790;2023-11-19T10:48:36;12.80;96.90
9373;DHT22;10838;52.350;9.790;2023-11-19T10:51:05;12.90;96.90
9373;DHT22;10838;52.350;9.790;2023-11-19T10:53:35;12.90;96.90
9373;DHT22;10838;52.350;9.790;2023-11-19T10:56:05;12.90;96.90
9373;DHT22;10838;52.350;9.790;2023-11-19T10:58:35;12.90;96.90
9373;DHT22;10838;52.350;9.790;2023-11-19T11:01:09;12.90;96.90
9373;DHT22;10838;52.350;9.790;2023-11-19T11:03:39;13.00;96.90
9373;DHT22;10838;52.350;9.790;2023-11-19T11:06:06;13.00;96.90
9373;DHT22;10838;52.350;9.790;2023-11-19T11:08:36;13.00;96.90
9373;DHT22;10838;52.350;9.790;2023-11-19T11:11:05;13.10;96.90
9373;DHT22;10838;52.350;9.790;2023-11-19T11:13:33;13.10;96.90
9373;DHT22;10838;52.350;9.790;2023-11-19T11:16:00;13.10;96.90
9373;DHT22;10838;52.350;9.790;2023-11-19T11:18:28;13.20;96.90
9373;DHT22;10838;52.350;9.790;2023-11-19T11:20:59;13.20;96.90
9373;DHT22;10838;52.350;9.790;2023-11-19T11:23:50;13.20;96.90
9373;DHT22;10838;52.350;9.790;2023-11-19T11:26:46;13.30;96.90
9373;DHT22;10838;52.350;9.790;2023-11-19T11:29:24;13.30;96.80
9373;DHT22;10838;52.350;9.790;2023-11-19T11:31:58;13.30;96.80
9373;DHT22;10838;52.350;9.790;2023-11-19T11:34:43;13.30;96.80
9373;DHT22;10838;52.350;9.790;2023-11-19T11:37:18;13.30;96.80
9373;DHT22;10838;52.350;9.790;2023-11-19T11:39:49;13.30;96.80
9373;DHT22;10838;52.350;9.790;2023-11-19T11:42:35;13.40;96.70
9373;DHT22;10838;52.350;9.790;2023-11-19T11:45:04;13.40;96.80
9373;DHT22;10838;52.350;9.790;2023-11-19T11:48:14;13.40;96.70
9373;DHT22;10838;52.350;9.790;2023-11-19T11:50:50;13.50;96.70
9373;DHT22;10838;52.350;9.790;2023-11-19T11:53:17;13.50;96.70
9373;DHT22;10838;52.350;9.790;2023-11-19T11:55:57;13.50;96.70
9373;DHT22;10838;52.350;9.790;2023-11-19T11:58:32;13.60;96.70
9373;DHT22;10838;52.350;9.790;2023-11-19T12:01:03;13.60;96.70
9373;DHT22;10838;52.350;9.790;2023-11-19T12:03:31;13.60;96.70
9373;DHT22;10838;52.350;9.790;2023-11-19T12:05:59;13.60;96.60
9373;DHT22;10838;52.350;9.790;2023-11-19T12:08:28;13.60;96.60
9373;DHT22;10838;52.350;9.790;2023-11-19T12:10:56;13.60;96.60
9373;DHT22;10838;52.350;9.790;2023-11-19T12:13:24;13.60;96.60
9373;DHT22;10838;52.350;9.790;2023-11-19T12:16:10;13.60;96.60
9373;DHT22;10838;52.350;9.790;2023-11-19T12:18:39;13.70;96.60
9373;DHT22;10838;52.350;9.790;2023-11-19T12:21:08;13.70;96.50
9373;DHT22;10838;52.350;9.790;2023-11-19T12:23:45;13.70;96.50
9373;DHT22;10838;52.350;9.790;2023-11-19T12:26:33;13.70;96.50
9373;DHT22;10838;52.350;9.790;2023-11-19T12:29:02;13.70;96.50
9373;DHT22;10838;52.350;9.790;2023-11-19T12:31:32;13.70;96.50
9373;DHT22;10838;52.350;9.790;2023-11-19T12:34:08;13.70;96.50
9373;DHT22;10838;52.350;9.790;2023-11-19T12:36:39;13.70;96.40
9373;DHT22;10838;52.350;9.790;2023-11-19T12:39:07;13.70;96.40
9373;DHT22;10838;52.350;9.790;2023-11-19T12:41:57;13.70;96.40
9373;DHT22;10838;52.350;9.790;2023-11-19T12:44:24;13.80;96.40
9373;DHT22;10838;52.350;9.790;2023-11-19T12:47:01;13.70;96.40
9373;DHT22;10838;52.350;9.790;2023-11-19T12:49:28;13.70;96.40
9373;DHT22;10838;52.350;9.790;2023-11-19T12:51:56;13.70;96.40
9373;DHT22;10838;52.350;9.790;2023-11-19T12:54:32;13.70;96.40
9373;DHT22;10838;52.350;9.790;2023-11-19T12:56:59;13.70;96.40
9373;DHT22;10838;52.350;9.790;2023-11-19T12:59:26;13.70;96.40
9373;DHT22;10838;52.350;9.790;2023-11-19T13:01:56;13.70;96.40
9373;DHT22;10838;52.350;9.790;2023-11-19T13:04:23;13.60;96.40
9373;DHT22;10838;52.350;9.790;2023-11-19T13:06:50;13.60;96.40
9373;DHT22;10838;52.350;9.790;2023-11-19T13:09:25;13.60;96.30
9373;DHT22;10838;52.350;9.790;2023-11-19T13:11:52;13.60;96.30
9373;DHT22;10838;52.350;9.790;2023-11-19T13:14:20;13.60;96.40
9373;DHT22;10838;52.350;9.790;2023-11-19T13:16:46;13.60;96.40
9373;DHT22;10838;52.350;9.790;2023-11-19T13:19:13;13.50;96.30
9373;DHT22;10838;52.350;9.790;2023-11-19T13:21:41;13.50;96.30
9373;DHT22;10838;52.350;9.790;2023-11-19T13:24:09;13.50;96.30
9373;DHT22;10838;52.350;9.790;2023-11-19T13:26:37;13.50;96.40
9373;DHT22;10838;52.350;9.790;2023-11-19T13:29:04;13.50;96.40
9373;DHT22;10838;52.350;9.790;2023-11-19T13:31:30;13.50;96.40
9373;DHT22;10838;52.350;9.790;2023-11-19T13:33:57;13.40;96.40
9373;DHT22;10838;52.350;9.790;2023-11-19T13:36:24;13.50;96.50
9373;DHT22;10838;52.350;9.790;2023-11-19T13:38:51;13.50;96.50
9373;DHT22;10838;52.350;9.790;2023-11-19T13:41:24;13.40;96.50
9373;DHT22;10838;52.350;9.790;2023-11-19T13:43:52;13.40;96.50
9373;DHT22;10838;52.350;9.790;2023-11-19T13:46:19;13.40;96.50
9373;DHT22;10838;52.350;9.790;2023-11-19T13:48:45;13.40;96.50
9373;DHT22;10838;52.350;9.790;2023-11-19T13:51:12;13.40;96.50
9373;DHT22;10838;52.350;9.790;2023-11-19T13:53:38;13.40;96.50
9373;DHT22;10838;52.350;9.790;2023-11-19T13:56:06;13.40;96.50
9373;DHT22;10838;52.350;9.790;2023-11-19T13:58:33;13.40;96.50
9373;DHT22;10838;52.350;9.790;2023-11-19T14:01:01;13.40;96.50
9373;DHT22;10838;52.350;9.790;2023-11-19T14:03:28;13.40;96.50
9373;DHT22;10838;52.350;9.790;2023-11-19T14:05:55;13.40;96.50
9373;DHT22;10838;52.350;9.790;2023-11-19T14:08:23;13.40;96.50
9373;DHT22;10838;52.350;9.790;2023-11-19T14:10:50;13.40;96.50
9373;DHT22;10838;52.350;9.790;2023-11-19T14:13:16;13.40;96.50
9373;DHT22;10838;52.350;9.790;2023-11-19T14:15:43;13.40;96.50
9373;DHT22;10838;52.350;9.790;2023-11-19T14:18:11;13.40;96.50
9373;DHT22;10838;52.350;9.790;2023-11-19T14:20:38;13.40;96.50
9373;DHT22;10838;52.350;9.790;2023-11-19T14:23:05;13.40;96.50
9373;DHT22;10838;52.350;9.790;2023-11-19T14:25:32;13.40;96.50
9373;DHT22;10838;52.350;9.790;2023-11-19T14:27:59;13.40;96.50
9373;DHT22;10838;52.350;9.790;2023-11-19T14:30:26;13.40;96.50
9373;DHT22;10838;52.350;9.790;2023-11-19T14:32:52;13.40;96.50
9373;DHT22;10838;52.350;9.790;2023-11-19T14:35:20;13.40;96.50
9373;DHT22;10838;52.350;9.790;2023-11-19T14:37:47;13.40;96.50
9373;DHT22;10838;52.350;9.790;2023-11-19T14:40:14;13.40;96.50
9373;DHT22;10838;52.350;9.790;2023-11-19T14:42:41;13.40;96.50
9373;DHT22;10838;52.350;9.790;2023-11-19T14:45:08;13.40;96.50
9373;DHT22;10838;52.350;9.790;2023-11-19T14:47:37;13.40;96.50
9373;DHT22;10838;52.350;9.790;2023-11-19T14:50:04;13.30;96.50
9373;DHT22;10838;52.350;9.790;2023-11-19T14:52:34;13.30;96.50
9373;DHT22;10838;52.350;9.790;2023-11-19T14:55:01;13.30;96.50
9373;DHT22;10838;52.350;9.790;2023-11-19T14:57:27;13.20;96.60
9373;DHT22;10838;52.350;9.790;2023-11-19T14:59:54;13.20;96.70
9373;DHT22;10838;52.350;9.790;2023-11-19T15:02:21;13.10;96.70
9373;DHT22;10838;52.350;9.790;2023-11-19T15:04:48;13.10;96.80
9373;DHT22;10838;52.350;9.790;2023-11-19T15:07:14;13.00;96.80
9373;DHT22;10838;52.350;9.790;2023-11-19T15:09:42;13.00;96.80
9373;DHT22;10838;52.350;9.790;2023-11-19T15:12:09;13.00;96.90
9373;DHT22;10838;52.350;9.790;2023-11-19T15:14:36;12.90;96.90
9373;DHT22;10838;52.350;9.790;2023-11-19T15:17:03;12.90;96.90
9373;DHT22;10838;52.350;9.790;2023-11-19T15:19:31;12.90;97.00
9373;DHT22;10838;52.350;9.790;2023-11-19T15:21:58;12.80;97.00
9373;DHT22;10838;52.350;9.790;2023-11-19T15:24:24;12.80;97.00
9373;DHT22;10838;52.350;9.790;2023-11-19T15:26:53;12.80;97.10
9373;DHT22;10838;52.350;9.790;2023-11-19T15:29:20;12.80;97.10
9373;DHT22;10838;52.350;9.790;2023-11-19T15:31:48;12.80;97.10
9373;DHT22;10838;52.350;9.790;2023-11-19T15:34:14;12.80;97.20
9373;DHT22;10838;52.350;9.790;2023-11-19T15:36:40;12.80;97.20
9373;DHT22;10838;52.350;9.790;2023-11-19T15:39:08;12.70;97.20
9373;DHT22;10838;52.350;9.790;2023-11-19T15:41:34;12.70;97.20
9373;DHT22;10838;52.350;9.790;2023-11-19T15:44:02;12.60;97.20
9373;DHT22;10838;52.350;9.790;2023-11-19T15:46:29;12.60;97.20
9373;DHT22;10838;52.350;9.790;2023-11-19T15:48:56;12.60;97.20
9373;DHT22;10838;52.350;9.790;2023-11-19T15:51:23;12.50;97.20
9373;DHT22;10838;52.350;9.790;2023-11-19T15:53:49;12.50;97.20
9373;DHT22;10838;52.350;9.790;2023-11-19T15:56:16;12.50;97.20
9373;DHT22;10838;52.350;9.790;2023-11-19T15:58:43;12.50;97.30